createdAt,value
2022-08-26T00:00:58.471Z,82.61
2022-08-26T00:03:24.861Z,82.78
2022-08-26T00:05:51.231Z,83.84
2022-08-26T00:08:18.184Z,84.48
2022-08-26T00:10:44.560Z,85.79
2022-08-26T00:13:10.972Z,86.26
2022-08-26T00:15:37.667Z,86.90
2022-08-26T00:18:04.406Z,88.85
2022-08-26T00:20:43.299Z,90.08
2022-08-26T00:23:09.660Z,90.21
2022-08-26T00:25:36.261Z,89.69
2022-08-26T00:28:08.968Z,89.65
2022-08-26T00:30:37.464Z,90.31
2022-08-26T00:33:05.523Z,90.40
2022-08-26T00:35:32.404Z,91.34
2022-08-26T00:38:00.143Z,91.51
2022-08-26T00:40:32.411Z,91.29
2022-08-26T00:42:59.645Z,91.40
2022-08-26T00:45:26.127Z,91.37
2022-08-26T00:48:00.139Z,91.52
2022-08-26T00:50:29.501Z,90.92
2022-08-26T00:52:56.078Z,90.64
2022-08-26T00:55:27.518Z,90.54
2022-08-26T00:58:04.743Z,90.89
2022-08-26T01:00:31.121Z,90.93
2022-08-26T01:02:57.686Z,90.63
2022-08-26T01:05:24.224Z,91.61
2022-08-26T01:07:50.587Z,92.33
2022-08-26T01:10:18.077Z,92.48
2022-08-26T01:13:13.913Z,93.13
2022-08-26T01:15:44.890Z,92.77
2022-08-26T01:18:11.321Z,93.04
2022-08-26T01:20:41.452Z,92.88
2022-08-26T01:23:08.703Z,92.75
2022-08-26T01:25:37.063Z,92.72
2022-08-26T01:28:07.159Z,92.69
2022-08-26T01:30:33.567Z,92.67
2022-08-26T01:33:00.980Z,93.20
2022-08-26T01:35:27.598Z,92.68
2022-08-26T01:38:02.241Z,92.65
2022-08-26T01:40:32.002Z,91.63
2022-08-26T01:42:58.818Z,91.69
2022-08-26T01:45:25.876Z,92.09
2022-08-26T01:47:57.176Z,92.88
2022-08-26T01:50:30.426Z,93.64
2022-08-26T01:52:57.633Z,94.09
2022-08-26T01:55:29.306Z,95.43
2022-08-26T01:57:59.128Z,96.13
2022-08-26T02:00:26.623Z,95.80
2022-08-26T02:03:16.610Z,96.75
2022-08-26T02:05:53.303Z,97.07
2022-08-26T02:08:24.853Z,96.19
2022-08-26T02:10:51.852Z,96.45
2022-08-26T02:13:21.274Z,96.07
2022-08-26T02:15:49.129Z,96.33
2022-08-26T02:18:16.050Z,96.77
2022-08-26T02:20:42.810Z,97.14
2022-08-26T02:23:09.404Z,97.79
2022-08-26T02:25:49.672Z,98.14
2022-08-26T02:28:17.590Z,98.68
2022-08-26T02:30:47.090Z,98.62
2022-08-26T02:33:13.456Z,98.48
2022-08-26T02:35:39.844Z,98.63
2022-08-26T02:38:10.999Z,98.37
2022-08-26T02:40:40.456Z,98.35
2022-08-26T02:43:08.594Z,98.62
2022-08-26T02:45:35.226Z,98.71
2022-08-26T02:48:03.731Z,98.50
2022-08-26T02:50:30.172Z,98.02
2022-08-26T02:55:24.696Z,98.15
2022-08-26T02:57:52.008Z,97.63
2022-08-26T03:00:18.431Z,97.49
2022-08-26T03:02:45.052Z,97.34
2022-08-26T03:05:11.690Z,97.46
2022-08-26T03:07:38.066Z,97.68
2022-08-26T03:10:08.389Z,97.80
2022-08-26T03:12:35.422Z,98.25
2022-08-26T03:15:01.832Z,97.89
2022-08-26T03:17:28.230Z,98.20
2022-08-26T03:19:57.234Z,98.21
2022-08-26T03:22:23.867Z,98.98
2022-08-26T03:24:50.452Z,99.54
2022-08-26T03:27:17.603Z,100.00
2022-08-26T03:30:02.663Z,100.00
2022-08-26T03:32:29.015Z,100.00
2022-08-26T03:34:56.391Z,100.00
2022-08-26T03:37:22.762Z,100.00
2022-08-26T03:39:49.180Z,100.00
2022-08-26T03:42:15.862Z,100.00
2022-08-26T03:44:42.375Z,100.00
2022-08-26T03:47:08.772Z,100.00
2022-08-26T03:49:35.819Z,100.00
2022-08-26T03:52:02.535Z,100.00
2022-08-26T03:54:30.120Z,100.00
2022-08-26T03:56:56.476Z,100.00
2022-08-26T03:59:23.658Z,100.00
2022-08-26T04:01:50.960Z,100.00
2022-08-26T04:04:17.826Z,100.00
2022-08-26T04:06:44.752Z,100.00
2022-08-26T04:09:17.908Z,100.00
2022-08-26T04:11:44.408Z,100.00
2022-08-26T04:14:13.373Z,100.00
2022-08-26T04:16:40.122Z,100.00
2022-08-26T04:19:06.600Z,100.00
2022-08-26T04:21:33.850Z,100.00
2022-08-26T04:24:00.232Z,100.00
2022-08-26T04:26:30.893Z,100.00
2022-08-26T04:28:58.627Z,100.00
2022-08-26T04:31:26.243Z,100.00
2022-08-26T04:33:53.007Z,100.00
2022-08-26T04:36:19.921Z,100.00
2022-08-26T04:38:49.544Z,100.00
2022-08-26T04:41:18.305Z,100.00
2022-08-26T04:43:44.669Z,100.00
2022-08-26T04:46:12.985Z,100.00
2022-08-26T04:48:40.835Z,100.00
2022-08-26T04:51:07.219Z,100.00
2022-08-26T04:53:34.781Z,100.00
2022-08-26T04:56:01.238Z,100.00
2022-08-26T04:58:30.198Z,100.00
2022-08-26T05:00:56.662Z,100.00
2022-08-26T05:03:23.626Z,100.00
2022-08-26T05:05:50.122Z,100.00
2022-08-26T05:08:17.309Z,100.00
2022-08-26T05:10:46.122Z,100.00
2022-08-26T05:13:15.381Z,100.00
2022-08-26T05:15:42.178Z,100.00
2022-08-26T05:18:08.780Z,100.00
2022-08-26T05:20:41.375Z,100.00
2022-08-26T05:23:07.973Z,100.00
2022-08-26T05:25:38.703Z,100.00
2022-08-26T05:28:06.098Z,100.00
2022-08-26T05:30:32.658Z,100.00
2022-08-26T05:33:01.824Z,100.00
2022-08-26T05:37:58.769Z,100.00
2022-08-26T05:40:25.518Z,100.00
2022-08-26T05:42:52.945Z,100.00
2022-08-26T05:45:19.857Z,100.00
2022-08-26T05:47:46.317Z,100.00
2022-08-26T05:50:13.811Z,100.00
2022-08-26T05:52:40.739Z,99.14
2022-08-26T05:55:07.186Z,99.74
2022-08-26T05:57:37.440Z,98.80
2022-08-26T06:00:06.609Z,97.23
2022-08-26T06:02:33.028Z,97.58
2022-08-26T06:04:59.396Z,97.14
2022-08-26T06:07:45.749Z,95.84
2022-08-26T06:10:31.424Z,96.13
2022-08-26T06:13:00.747Z,96.11
2022-08-26T06:15:31.149Z,93.32
2022-08-26T06:17:57.810Z,93.12
2022-08-26T06:20:24.162Z,91.11
2022-08-26T06:23:11.497Z,90.15
2022-08-26T06:25:38.507Z,89.05
2022-08-26T06:28:05.246Z,88.69
2022-08-26T06:30:32.403Z,87.78
2022-08-26T06:32:59.143Z,87.86
2022-08-26T06:35:26.424Z,87.28
2022-08-26T06:37:53.043Z,87.22
2022-08-26T06:40:20.917Z,85.74
2022-08-26T06:42:47.314Z,85.23
2022-08-26T06:45:14.079Z,84.32
2022-08-26T06:47:40.439Z,84.63
2022-08-26T06:50:06.978Z,83.28
2022-08-26T06:52:33.333Z,83.38
2022-08-26T06:55:01.095Z,82.99
2022-08-26T06:57:28.558Z,82.47
2022-08-26T06:59:58.023Z,81.97
2022-08-26T07:02:24.901Z,81.52
2022-08-26T07:04:56.852Z,81.79
2022-08-26T07:07:23.329Z,81.63
2022-08-26T07:09:52.639Z,81.36
2022-08-26T07:12:19.150Z,79.69
2022-08-26T07:14:47.430Z,80.19
2022-08-26T07:17:14.854Z,79.54
2022-08-26T07:19:41.206Z,80.02
2022-08-26T07:22:08.547Z,78.94
2022-08-26T07:24:37.838Z,79.19
2022-08-26T07:27:05.817Z,77.93
2022-08-26T07:29:32.337Z,78.86
2022-08-26T07:31:58.701Z,78.10
2022-08-26T07:34:26.456Z,77.57
2022-08-26T07:36:52.994Z,76.09
2022-08-26T07:39:19.479Z,75.63
2022-08-26T07:41:47.317Z,74.83
2022-08-26T07:44:14.139Z,75.70
2022-08-26T07:46:40.979Z,75.30
2022-08-26T07:49:11.082Z,75.34
2022-08-26T07:51:37.674Z,76.98
2022-08-26T07:54:04.507Z,75.81
2022-08-26T07:56:30.945Z,72.13
2022-08-26T07:58:57.754Z,73.79
2022-08-26T08:01:24.686Z,70.60
2022-08-26T08:03:52.339Z,69.17
2022-08-26T08:06:19.521Z,71.28
2022-08-26T08:08:45.936Z,69.67
2022-08-26T08:11:12.281Z,67.94
2022-08-26T08:13:38.661Z,67.66
2022-08-26T08:16:05.091Z,68.75
2022-08-26T08:18:31.463Z,65.70
2022-08-26T08:21:10.812Z,66.27
2022-08-26T08:23:45.792Z,65.70
2022-08-26T08:26:12.544Z,65.70
2022-08-26T08:28:39.618Z,63.34
2022-08-26T08:31:08.003Z,62.95
2022-08-26T08:33:34.987Z,63.56
2022-08-26T08:36:01.401Z,65.23
2022-08-26T08:38:28.058Z,65.67
2022-08-26T08:40:54.412Z,66.63
2022-08-26T08:43:30.471Z,66.11
2022-08-26T08:45:58.226Z,65.80
2022-08-26T08:48:28.025Z,65.74
2022-08-26T08:50:55.800Z,66.71
2022-08-26T08:53:35.574Z,64.07
2022-08-26T08:56:09.200Z,66.22
2022-08-26T08:58:41.453Z,63.21
2022-08-26T09:01:11.977Z,64.23
2022-08-26T09:03:42.081Z,63.86
2022-08-26T09:06:16.948Z,63.57
2022-08-26T09:08:44.328Z,63.14
2022-08-26T09:11:10.950Z,63.77
2022-08-26T09:13:37.976Z,61.43
2022-08-26T09:16:10.039Z,60.09
2022-08-26T09:18:55.365Z,60.18
2022-08-26T09:21:25.408Z,60.79
2022-08-26T09:23:52.141Z,58.35
2022-08-26T09:26:37.996Z,58.03
2022-08-26T09:29:05.613Z,58.51
2022-08-26T09:31:34.102Z,58.50
2022-08-26T09:34:06.441Z,57.35
2022-08-26T09:36:43.877Z,56.85
2022-08-26T09:39:29.056Z,58.11
2022-08-26T09:42:22.442Z,58.63
2022-08-26T09:44:59.384Z,59.74
2022-08-26T09:47:27.919Z,61.14
2022-08-26T09:50:14.387Z,62.35
2022-08-26T09:52:42.957Z,61.51
2022-08-26T09:55:09.301Z,58.44
2022-08-26T09:57:36.684Z,58.12
2022-08-26T10:00:11.456Z,59.09
2022-08-26T10:02:38.215Z,59.31
2022-08-26T10:05:09.605Z,58.65
2022-08-26T10:07:43.485Z,58.78
2022-08-26T10:10:14.307Z,58.22
2022-08-26T10:12:43.148Z,55.37
2022-08-26T10:15:09.695Z,57.37
2022-08-26T10:17:39.833Z,55.90
2022-08-26T10:20:22.948Z,54.94
2022-08-26T10:22:57.273Z,55.91
2022-08-26T10:25:25.976Z,56.26
2022-08-26T10:28:04.720Z,53.96
2022-08-26T10:30:41.011Z,54.13
2022-08-26T10:33:10.400Z,52.89
2022-08-26T10:35:37.359Z,52.93
2022-08-26T10:38:14.376Z,50.52
2022-08-26T10:40:44.609Z,48.36
2022-08-26T10:43:27.147Z,49.46
2022-08-26T10:45:54.591Z,51.67
2022-08-26T10:48:35.571Z,51.86
2022-08-26T10:51:03.306Z,53.03
2022-08-26T10:53:32.645Z,54.31
2022-08-26T10:56:18.814Z,53.76
2022-08-26T10:58:54.798Z,55.12
2022-08-26T11:01:46.859Z,54.96
2022-08-26T11:04:35.010Z,56.39
2022-08-26T11:07:20.418Z,54.39
2022-08-26T11:09:48.026Z,54.15
2022-08-26T11:12:34.375Z,55.27
2022-08-26T11:15:02.135Z,54.77
2022-08-26T11:17:46.921Z,55.18
2022-08-26T11:20:22.570Z,52.15
2022-08-26T11:22:50.718Z,50.54
2022-08-26T11:25:18.300Z,49.77
2022-08-26T11:27:48.069Z,50.88
2022-08-26T11:30:19.606Z,50.85
2022-08-26T11:32:49.351Z,50.31
2022-08-26T11:35:19.451Z,49.43
2022-08-26T11:37:47.847Z,50.00
2022-08-26T11:40:15.532Z,50.91
2022-08-26T11:42:55.574Z,52.88
2022-08-26T11:45:24.939Z,51.08
2022-08-26T11:47:51.375Z,50.51
2022-08-26T11:50:17.675Z,50.07
2022-08-26T11:52:51.445Z,50.83
2022-08-26T11:55:17.811Z,52.29
2022-08-26T11:57:47.014Z,53.98
2022-08-26T12:00:22.267Z,52.46
2022-08-26T12:02:49.083Z,54.61
2022-08-26T12:05:17.153Z,56.89
2022-08-26T12:07:43.527Z,54.49
2022-08-26T12:10:11.139Z,55.36
2022-08-26T12:12:38.660Z,57.25
2022-08-26T12:15:06.224Z,58.81
2022-08-26T12:17:32.598Z,55.09
2022-08-26T12:19:58.972Z,52.65
2022-08-26T12:22:29.320Z,52.60
2022-08-26T12:24:56.959Z,52.98
2022-08-26T12:27:24.487Z,50.83
2022-08-26T12:30:00.915Z,47.72
2022-08-26T12:32:27.998Z,47.34
2022-08-26T12:34:55.160Z,47.48
2022-08-26T12:37:21.821Z,46.13
2022-08-26T12:39:49.116Z,47.88
2022-08-26T12:42:15.787Z,47.21
2022-08-26T12:44:54.054Z,44.54
2022-08-26T12:47:39.025Z,45.50
2022-08-26T12:50:10.136Z,46.98
2022-08-26T12:52:51.754Z,47.17
2022-08-26T12:55:19.599Z,49.02
2022-08-26T12:57:47.310Z,48.30
2022-08-26T13:00:26.280Z,48.50
2022-08-26T13:02:54.906Z,47.97
2022-08-26T13:05:28.713Z,48.35
2022-08-26T13:08:14.431Z,49.94
2022-08-26T13:10:42.091Z,52.06
2022-08-26T13:13:08.604Z,54.24
2022-08-26T13:15:35.094Z,53.26
2022-08-26T13:18:03.395Z,53.77
2022-08-26T13:20:30.987Z,53.69
2022-08-26T13:23:09.077Z,54.05
2022-08-26T13:25:35.507Z,50.32
2022-08-26T13:28:01.887Z,51.67
2022-08-26T13:30:28.255Z,52.01
2022-08-26T13:32:56.196Z,53.79
2022-08-26T13:35:23.111Z,54.88
2022-08-26T13:37:49.923Z,56.51
2022-08-26T13:40:16.342Z,56.63
2022-08-26T13:42:43.071Z,57.32
2022-08-26T13:45:16.385Z,59.99
2022-08-26T13:47:42.753Z,60.71
2022-08-26T13:50:09.178Z,60.14
2022-08-26T13:52:35.556Z,60.94
2022-08-26T13:55:02.065Z,58.70
2022-08-26T13:57:28.592Z,58.10
2022-08-26T13:59:56.468Z,59.15
2022-08-26T14:02:22.951Z,57.92
2022-08-26T14:04:49.317Z,56.97
2022-08-26T14:07:15.677Z,55.47
2022-08-26T14:09:42.097Z,54.66
2022-08-26T14:12:08.525Z,53.98
2022-08-26T14:14:34.957Z,54.42
2022-08-26T14:17:01.334Z,55.04
2022-08-26T14:19:31.174Z,54.89
2022-08-26T14:21:57.781Z,53.96
2022-08-26T14:24:24.373Z,53.38
2022-08-26T14:26:50.746Z,56.69
2022-08-26T14:29:17.181Z,61.89
2022-08-26T14:31:43.691Z,63.92
2022-08-26T14:34:10.107Z,62.23
2022-08-26T14:36:36.616Z,62.01
2022-08-26T14:39:07.066Z,63.67
2022-08-26T14:41:34.231Z,63.30
2022-08-26T14:44:01.946Z,60.07
2022-08-26T14:46:29.038Z,61.10
2022-08-26T14:48:57.439Z,59.73
2022-08-26T14:51:28.419Z,58.32
2022-08-26T14:54:12.905Z,60.16
2022-08-26T14:56:59.492Z,60.44
2022-08-26T14:59:29.764Z,60.81
2022-08-26T15:01:56.468Z,62.52
2022-08-26T15:04:23.444Z,59.89
2022-08-26T15:06:49.938Z,60.41
2022-08-26T15:09:16.335Z,61.53
2022-08-26T15:11:42.747Z,61.12
2022-08-26T15:14:14.827Z,63.56
2022-08-26T15:16:49.773Z,63.15
2022-08-26T15:19:16.366Z,63.92
2022-08-26T15:21:43.359Z,62.73
2022-08-26T15:24:11.963Z,57.02
2022-08-26T15:26:38.341Z,57.12
2022-08-26T15:29:05.376Z,56.24
2022-08-26T15:31:32.037Z,55.12
2022-08-26T15:33:59.823Z,52.82
2022-08-26T15:36:26.798Z,54.89
2022-08-26T15:38:53.379Z,55.88
2022-08-26T15:41:19.726Z,55.29
2022-08-26T15:43:46.137Z,56.79
2022-08-26T15:46:12.556Z,57.99
2022-08-26T15:48:39.760Z,59.69
2022-08-26T15:51:07.464Z,60.52
2022-08-26T15:53:34.083Z,61.67
2022-08-26T15:56:00.827Z,62.21
2022-08-26T15:58:27.702Z,62.67
2022-08-26T16:00:54.664Z,64.83
2022-08-26T16:03:21.026Z,66.11
2022-08-26T16:05:47.431Z,65.94
2022-08-26T16:08:14.211Z,68.11
2022-08-26T16:10:45.456Z,70.37
2022-08-26T16:13:16.064Z,73.81
2022-08-26T16:15:42.589Z,76.17
2022-08-26T16:18:09.186Z,79.52
2022-08-26T16:20:36.178Z,81.99
2022-08-26T16:23:02.615Z,83.46
2022-08-26T16:25:29.113Z,84.31
2022-08-26T16:27:55.480Z,84.04
2022-08-26T16:30:22.014Z,84.93
2022-08-26T16:32:48.576Z,87.64
2022-08-26T16:35:15.191Z,88.34
2022-08-26T16:37:42.021Z,87.50
2022-08-26T16:40:13.113Z,87.48
2022-08-26T16:42:40.563Z,88.34
2022-08-26T16:45:07.216Z,89.71
2022-08-26T16:47:36.795Z,89.43
2022-08-26T16:50:04.322Z,89.98
2022-08-26T16:52:31.463Z,88.38
2022-08-26T16:54:58.565Z,87.11
2022-08-26T16:57:24.911Z,86.09
2022-08-26T16:59:51.325Z,85.89
2022-08-26T17:02:18.180Z,85.63
2022-08-26T17:04:47.184Z,85.76
2022-08-26T17:07:16.647Z,85.71
2022-08-26T17:09:43.086Z,85.83
2022-08-26T17:12:09.679Z,86.26
2022-08-26T17:14:36.067Z,86.32
2022-08-26T17:17:03.137Z,86.73
2022-08-26T17:19:29.491Z,88.29
2022-08-26T17:22:02.965Z,88.07
2022-08-26T17:24:33.103Z,87.69
2022-08-26T17:27:00.393Z,88.84
2022-08-26T17:29:26.806Z,89.82
2022-08-26T17:31:55.491Z,89.20
2022-08-26T17:34:21.896Z,89.28
2022-08-26T17:36:52.867Z,88.48
2022-08-26T17:39:19.283Z,88.68
2022-08-26T17:41:55.893Z,89.14
2022-08-26T17:44:22.325Z,89.82
2022-08-26T17:46:48.702Z,89.31
2022-08-26T17:49:15.557Z,90.50
2022-08-26T17:51:42.210Z,92.01
2022-08-26T17:54:11.731Z,92.31
2022-08-26T17:56:38.402Z,92.75
2022-08-26T17:59:04.750Z,93.19
2022-08-26T18:01:31.290Z,91.56
2022-08-26T18:04:00.454Z,92.08
2022-08-26T18:06:30.898Z,90.53
2022-08-26T18:08:57.858Z,90.51
2022-08-26T18:11:24.672Z,91.38
2022-08-26T18:13:51.345Z,92.14
2022-08-26T18:16:19.345Z,91.42
2022-08-26T18:18:46.498Z,91.69
2022-08-26T18:21:14.020Z,91.71
2022-08-26T18:23:40.365Z,91.71
2022-08-26T18:26:06.855Z,92.73
2022-08-26T18:28:35.366Z,92.26
2022-08-26T18:31:02.522Z,90.75
2022-08-26T18:33:30.147Z,90.55
2022-08-26T18:35:56.525Z,90.40
2022-08-26T18:38:22.887Z,91.20
2022-08-26T18:40:54.892Z,92.62
2022-08-26T18:43:22.037Z,93.10
2022-08-26T18:45:48.559Z,94.45
2022-08-26T18:48:14.977Z,95.67
2022-08-26T18:50:43.853Z,95.95
2022-08-26T18:53:13.451Z,96.40
2022-08-26T18:55:39.992Z,96.85
2022-08-26T18:58:06.414Z,97.69
2022-08-26T19:00:33.269Z,99.30
2022-08-26T19:02:59.827Z,99.43
2022-08-26T19:05:27.347Z,99.62
2022-08-26T19:07:53.691Z,99.46
2022-08-26T19:10:20.649Z,99.35
2022-08-26T19:12:47.023Z,99.56
2022-08-26T19:15:18.356Z,100.00
2022-08-26T19:17:45.054Z,100.00
2022-08-26T19:20:11.432Z,100.00
2022-08-26T19:22:37.784Z,100.00
2022-08-26T19:25:04.208Z,100.00
2022-08-26T19:27:30.583Z,100.00
2022-08-26T19:29:57.611Z,100.00
2022-08-26T19:32:24.306Z,100.00
2022-08-26T19:34:51.340Z,100.00
2022-08-26T19:37:18.328Z,100.00
2022-08-26T19:39:44.740Z,100.00
2022-08-26T19:42:11.087Z,100.00
2022-08-26T19:44:56.309Z,100.00
2022-08-26T19:47:22.699Z,100.00
2022-08-26T19:49:53.053Z,100.00
2022-08-26T19:52:23.155Z,100.00
2022-08-26T19:54:56.452Z,100.00
2022-08-26T19:57:22.840Z,100.00
2022-08-26T19:59:49.283Z,100.00
2022-08-26T20:02:16.192Z,100.00
2022-08-26T20:04:42.744Z,100.00
2022-08-26T20:07:09.123Z,100.00
2022-08-26T20:09:35.550Z,100.00
2022-08-26T20:12:02.626Z,100.00
2022-08-26T20:14:29.810Z,100.00
2022-08-26T20:16:56.272Z,100.00
2022-08-26T20:19:41.501Z,100.00
2022-08-26T20:22:07.947Z,100.00
2022-08-26T20:24:35.036Z,100.00
2022-08-26T20:27:05.493Z,100.00
2022-08-26T20:29:34.652Z,100.00
2022-08-26T20:32:01.094Z,100.00
2022-08-26T20:34:27.866Z,100.00
2022-08-26T20:36:54.255Z,100.00
2022-08-26T20:39:23.678Z,100.00
2022-08-26T20:41:50.060Z,100.00
2022-08-26T20:44:17.552Z,100.00
2022-08-26T20:46:44.019Z,100.00
2022-08-26T20:49:10.396Z,100.00
2022-08-26T20:51:37.409Z,100.00
2022-08-26T20:54:05.003Z,100.00
2022-08-26T20:56:31.380Z,100.00
2022-08-26T20:58:59.134Z,100.00
2022-08-26T21:01:30.428Z,100.00
2022-08-26T21:03:56.941Z,100.00
2022-08-26T21:06:23.400Z,100.00
2022-08-26T21:08:50.199Z,100.00
2022-08-26T21:11:18.011Z,100.00
2022-08-26T21:14:03.900Z,100.00
2022-08-26T21:16:30.636Z,100.00
2022-08-26T21:18:57.607Z,100.00
2022-08-26T21:21:29.878Z,100.00
2022-08-26T21:23:56.254Z,100.00
2022-08-26T21:26:22.741Z,100.00
2022-08-26T21:28:49.171Z,100.00
2022-08-26T21:31:16.639Z,100.00
2022-08-26T21:33:43.044Z,100.00
2022-08-26T21:36:09.642Z,100.00
2022-08-26T21:38:36.870Z,100.00
2022-08-26T21:41:04.601Z,100.00
2022-08-26T21:43:35.062Z,100.00
2022-08-26T21:46:02.747Z,100.00
2022-08-26T21:48:33.205Z,100.00
2022-08-26T21:51:01.110Z,100.00
2022-08-26T21:53:27.482Z,100.00
2022-08-26T21:55:54.128Z,100.00
2022-08-26T21:58:20.482Z,100.00
2022-08-26T22:00:48.161Z,100.00
2022-08-26T22:03:14.665Z,100.00
2022-08-26T22:05:44.540Z,100.00
2022-08-26T22:08:11.107Z,100.00
2022-08-26T22:10:38.441Z,100.00
2022-08-26T22:13:06.342Z,100.00
2022-08-26T22:15:35.335Z,100.00
2022-08-26T22:18:03.474Z,100.00
2022-08-26T22:20:31.039Z,100.00
2022-08-26T22:22:58.637Z,100.00
2022-08-26T22:25:25.347Z,100.00
2022-08-26T22:27:51.717Z,100.00
2022-08-26T22:30:19.755Z,100.00
2022-08-26T22:32:46.579Z,100.00
2022-08-26T22:35:29.242Z,100.00
2022-08-26T22:37:57.259Z,100.00
2022-08-26T22:40:24.328Z,100.00
2022-08-26T22:42:55.740Z,100.00
2022-08-26T22:45:26.909Z,100.00
2022-08-26T22:47:53.299Z,100.00
2022-08-26T22:50:19.695Z,100.00
2022-08-26T22:52:46.059Z,100.00
2022-08-26T22:55:12.444Z,100.00
2022-08-26T22:57:39.006Z,100.00
2022-08-26T23:00:05.878Z,100.00
2022-08-26T23:02:32.297Z,100.00
2022-08-26T23:04:58.675Z,100.00
2022-08-26T23:07:25.049Z,100.00
2022-08-26T23:09:51.404Z,100.00
2022-08-26T23:12:18.047Z,100.00
2022-08-26T23:14:44.415Z,100.00
2022-08-26T23:17:11.198Z,100.00
2022-08-26T23:19:37.582Z,100.00
2022-08-26T23:22:03.972Z,100.00
2022-08-26T23:24:30.364Z,100.00
2022-08-26T23:26:56.737Z,100.00
2022-08-26T23:29:23.095Z,100.00
2022-08-26T23:31:49.528Z,100.00
2022-08-26T23:34:34.461Z,100.00
2022-08-26T23:37:00.998Z,100.00
2022-08-26T23:39:27.444Z,100.00
2022-08-26T23:41:53.872Z,100.00
2022-08-26T23:44:20.729Z,100.00
2022-08-26T23:46:47.123Z,100.00
2022-08-26T23:49:13.524Z,100.00
2022-08-26T23:51:58.576Z,100.00
2022-08-26T23:54:24.945Z,100.00
2022-08-26T23:56:51.338Z,100.00
2022-08-26T23:59:17.705Z,100.00
